Clara, Argentina
Current Conditions -  °F | °C
As of 9:00 AM on Friday 21 Nov 2014 (Local Time) from SUSO Reporting Station
Thunderstorm Thunderstorm  
Wind Chill: 64°   Ceiling: 2000
Heat Index: 64°   Visibility: 0.62mi
Dew Point: 63°   Wind: 12mph
Humidity: 94%   Direction: 160°SSE
Pressure: 29.83"   Gusts: NA
Location:  31.83°S, 58.82°W
Report Text: SUSO 211200Z 16010KT 1000 TSRA SCT006 OVC020 FEW040CB 18/17 Q1010
Loading
Personal Weather Stations






























Interactive Weather Map New forecast layout! Learn more

10-Day Weather Forecast

Advertisements
Track Severe Weather on mobile